MSC Levina — 3FJR8 — position and weather

sailwx.info

Track history (hours):
 
Tides and Currents Weather Stations Pressure Air Temp Water Temp Dewpoint Dewpoint Depression Visibility Wind Speed Wind Dir Waves Ship Positions

MSC Levina

Last reported at 2016-Dec-09 17:31 UTC. Time now 2016-Dec-10 18:35 UTC.
Position N 29°39' E 122°40'.

Length 227.6 m; beam 32.2 m; draft 12.1 m.

Type: Ship (hazmat cat A). MMSI: 355609000.

Date/timePositionNaut miles runAvg speedWind from/ knotsBaromVisibWave heightAir tempDewpointWater temp
2016-Dec-09 17:31N 29°39' E 122°40'1414.7
2016-Dec-09 16:33N 29°42' E 122°24'1212.1
2016-Dec-09 15:33N 29°50' E 122°13'1010.4
2016-Dec-09 14:33N 29°54' E 122°02'0 0.4
2016-Dec-09 13:31N 29°54' E 122°02'0 0.0
2016-Dec-09 12:31N 29°54' E 122°02'0 0.0
2016-Dec-09 11:31N 29°54' E 122°02'0 0.0
2016-Dec-09 10:31N 29°54' E 122°02'0 0.1
2016-Dec-09 09:31N 29°54' E 122°02'0 0.0
2016-Dec-09 08:31N 29°54' E 122°02'0 0.0
2016-Dec-09 07:25N 29°54' E 122°02'0 0.0
2016-Dec-09 06:31N 29°54' E 122°02'0 0.1
2016-Dec-09 05:31N 29°54' E 122°02'0 0.0
2016-Dec-09 04:31N 29°54' E 122°02'0 0.0
2016-Dec-09 03:25N 29°54' E 122°02'0 0.0
2016-Dec-09 02:31N 29°54' E 122°02'0 0.1
2016-Dec-09 01:28N 29°54' E 122°02'0 0.0
2016-Dec-09 00:31N 29°54' E 122°02'0 0.1
2016-Dec-08 23:31N 29°54' E 122°02'0 0.1
2016-Dec-08 22:31N 29°54' E 122°02'0 0.0
2016-Dec-08 21:31N 29°54' E 122°02'0 0.1
2016-Dec-08 20:31N 29°54' E 122°02'0 0.0
2016-Dec-08 19:31N 29°54' E 122°02'0 0.0
2016-Dec-08 18:31N 29°54' E 122°02'0 0.0
2016-Dec-08 17:31N 29°54' E 122°02'0 0.0
2016-Dec-08 16:25N 29°54' E 122°02'0 0.0
2016-Dec-08 15:31N 29°54' E 122°02'2 2.1
2016-Dec-08 14:33N 29°54' E 122°04'8 8.5
2016-Dec-08 13:33N 29°50' E 122°13'9 9.0
2016-Dec-08 12:33N 29°45' E 122°21'5 4.6
2016-Dec-08 11:30N 29°44' E 122°27'0 0.0
2016-Dec-08 10:30N 29°44' E 122°27'0 0.1
2016-Dec-08 09:30N 29°44' E 122°27'0 0.1
2016-Dec-08 08:30N 29°44' E 122°27'0 0.1
2016-Dec-08 07:30N 29°44' E 122°27'0 0.1
2016-Dec-08 06:30N 29°44' E 122°27'0 0.0
2016-Dec-08 05:30N 29°44' E 122°27'0 0.1
2016-Dec-08 04:27N 29°44' E 122°27'5 6.1
2016-Dec-08 03:34N 29°42' E 122°33'  
2016-Dec-04 10:27N 35°05' E 139°43'1010.9
2016-Dec-04 09:33N 35°15' E 139°46'1111.1
2016-Dec-04 08:33N 35°25' E 139°43'3 2.7
2016-Dec-04 07:33N 35°28' E 139°42'0 0.0
2016-Dec-04 06:33N 35°28' E 139°42'0 0.1
2016-Dec-04 05:33N 35°28' E 139°42'0 0.0
2016-Dec-04 04:33N 35°28' E 139°42'0 0.0
2016-Dec-04 03:33N 35°28' E 139°42'0 0.0
2016-Dec-04 02:33N 35°28' E 139°42'0 0.0
2016-Dec-04 01:33N 35°28' E 139°42'0 0.1
2016-Dec-04 00:33N 35°28' E 139°42'0 0.0
2016-Dec-03 23:33N 35°28' E 139°42'0 0.2
2016-Dec-03 22:34N 35°28' E 139°42'3 3.2
2016-Dec-03 21:33N 35°27' E 139°46'0 0.0
2016-Dec-03 20:33N 35°27' E 139°46'0 0.0
2016-Dec-03 19:33N 35°27' E 139°46'0 0.1
2016-Dec-03 18:33N 35°27' E 139°46'0 0.0
2016-Dec-03 17:33N 35°27' E 139°46'0 0.0
2016-Dec-03 16:33N 35°27' E 139°46'0 0.0
2016-Dec-03 15:33N 35°27' E 139°46'0 0.0
2016-Dec-03 14:33N 35°27' E 139°46'0 0.2
2016-Dec-03 13:33N 35°27' E 139°45'0 0.1
2016-Dec-03 12:30N 35°27' E 139°45'0 0.0
2016-Dec-03 11:33N 35°27' E 139°45'0 0.0
2016-Dec-03 10:33N 35°27' E 139°45'0 0.1
2016-Dec-03 09:33N 35°27' E 139°46'7 7.4
2016-Dec-03 08:33N 35°33' E 139°51'5 4.6
2016-Dec-03 07:31N 35°37' E 139°47'0 0.0
2016-Dec-03 06:34N 35°37' E 139°47'0 0.0
2016-Dec-03 05:28N 35°37' E 139°47'0 0.0
2016-Dec-03 04:34N 35°37' E 139°47'0 0.0
2016-Dec-03 03:34N 35°37' E 139°47'0 0.0
2016-Dec-03 02:34N 35°37' E 139°47'0 0.0
2016-Dec-03 01:34N 35°37' E 139°47'0 0.0
2016-Dec-03 00:34N 35°37' E 139°47'0 0.0
2016-Dec-02 23:34N 35°37' E 139°47'2 2.1
2016-Dec-02 22:33N 35°35' E 139°48'1111.1
2016-Dec-02 21:33N 35°24' E 139°46'1111.4
2016-Dec-02 20:34N 35°12' E 139°47'7 7.1
2016-Dec-02 19:33N 35°05' E 139°46'5 5.4
2016-Dec-02 18:33N 35°01' E 139°42'8 7.3
2016-Dec-02 17:31N 34°54' E 139°38'  
Track history (hours):
 
Tides and Currents Weather Stations Pressure Air Temp Water Temp Dewpoint Dewpoint Depression Visibility Wind Speed Wind Dir Waves Ship Positions

MSC Levina

Last reported at 2016-Dec-09 17:31 UTC. Time now 2016-Dec-10 18:35 UTC.
Position N 29°39' E 122°40'.

Length 227.6 m; beam 32.2 m; draft 12.1 m.

Type: Ship (hazmat cat A). MMSI: 355609000.

Date/timePositionNaut miles runAvg speedWind from/ knotsBaromVisibWave heightAir tempDewpointWater temp
2016-Dec-09 17:31N 29°39' E 122°40'1414.7
2016-Dec-09 16:33N 29°42' E 122°24'1212.1
2016-Dec-09 15:33N 29°50' E 122°13'1010.4
2016-Dec-09 14:33N 29°54' E 122°02'0 0.4
2016-Dec-09 13:31N 29°54' E 122°02'0 0.0
2016-Dec-09 12:31N 29°54' E 122°02'0 0.0
2016-Dec-09 11:31N 29°54' E 122°02'0 0.0
2016-Dec-09 10:31N 29°54' E 122°02'0 0.1
2016-Dec-09 09:31N 29°54' E 122°02'0 0.0
2016-Dec-09 08:31N 29°54' E 122°02'0 0.0
2016-Dec-09 07:25N 29°54' E 122°02'0 0.0
2016-Dec-09 06:31N 29°54' E 122°02'0 0.1
2016-Dec-09 05:31N 29°54' E 122°02'0 0.0
2016-Dec-09 04:31N 29°54' E 122°02'0 0.0
2016-Dec-09 03:25N 29°54' E 122°02'0 0.0
2016-Dec-09 02:31N 29°54' E 122°02'0 0.1
2016-Dec-09 01:28N 29°54' E 122°02'0 0.0
2016-Dec-09 00:31N 29°54' E 122°02'0 0.1
2016-Dec-08 23:31N 29°54' E 122°02'0 0.1
2016-Dec-08 22:31N 29°54' E 122°02'0 0.0
2016-Dec-08 21:31N 29°54' E 122°02'0 0.1
2016-Dec-08 20:31N 29°54' E 122°02'0 0.0
2016-Dec-08 19:31N 29°54' E 122°02'0 0.0
2016-Dec-08 18:31N 29°54' E 122°02'0 0.0
2016-Dec-08 17:31N 29°54' E 122°02'0 0.0
2016-Dec-08 16:25N 29°54' E 122°02'0 0.0
2016-Dec-08 15:31N 29°54' E 122°02'2 2.1
2016-Dec-08 14:33N 29°54' E 122°04'8 8.5
2016-Dec-08 13:33N 29°50' E 122°13'9 9.0
2016-Dec-08 12:33N 29°45' E 122°21'5 4.6
2016-Dec-08 11:30N 29°44' E 122°27'0 0.0
2016-Dec-08 10:30N 29°44' E 122°27'0 0.1
2016-Dec-08 09:30N 29°44' E 122°27'0 0.1
2016-Dec-08 08:30N 29°44' E 122°27'0 0.1
2016-Dec-08 07:30N 29°44' E 122°27'0 0.1
2016-Dec-08 06:30N 29°44' E 122°27'0 0.0
2016-Dec-08 05:30N 29°44' E 122°27'0 0.1
2016-Dec-08 04:27N 29°44' E 122°27'5 6.1
2016-Dec-08 03:34N 29°42' E 122°33'  
2016-Dec-04 10:27N 35°05' E 139°43'1010.9
2016-Dec-04 09:33N 35°15' E 139°46'1111.1
2016-Dec-04 08:33N 35°25' E 139°43'3 2.7
2016-Dec-04 07:33N 35°28' E 139°42'0 0.0
2016-Dec-04 06:33N 35°28' E 139°42'0 0.1
2016-Dec-04 05:33N 35°28' E 139°42'0 0.0
2016-Dec-04 04:33N 35°28' E 139°42'0 0.0
2016-Dec-04 03:33N 35°28' E 139°42'0 0.0
2016-Dec-04 02:33N 35°28' E 139°42'0 0.0
2016-Dec-04 01:33N 35°28' E 139°42'0 0.1
2016-Dec-04 00:33N 35°28' E 139°42'0 0.0
2016-Dec-03 23:33N 35°28' E 139°42'0 0.2
2016-Dec-03 22:34N 35°28' E 139°42'3 3.2
2016-Dec-03 21:33N 35°27' E 139°46'0 0.0
2016-Dec-03 20:33N 35°27' E 139°46'0 0.0
2016-Dec-03 19:33N 35°27' E 139°46'0 0.1
2016-Dec-03 18:33N 35°27' E 139°46'0 0.0
2016-Dec-03 17:33N 35°27' E 139°46'0 0.0
2016-Dec-03 16:33N 35°27' E 139°46'0 0.0
2016-Dec-03 15:33N 35°27' E 139°46'0 0.0
2016-Dec-03 14:33N 35°27' E 139°46'0 0.2
2016-Dec-03 13:33N 35°27' E 139°45'0 0.1
2016-Dec-03 12:30N 35°27' E 139°45'0 0.0
2016-Dec-03 11:33N 35°27' E 139°45'0 0.0
2016-Dec-03 10:33N 35°27' E 139°45'0 0.1
2016-Dec-03 09:33N 35°27' E 139°46'7 7.4
2016-Dec-03 08:33N 35°33' E 139°51'5 4.6
2016-Dec-03 07:31N 35°37' E 139°47'0 0.0
2016-Dec-03 06:34N 35°37' E 139°47'0 0.0
2016-Dec-03 05:28N 35°37' E 139°47'0 0.0
2016-Dec-03 04:34N 35°37' E 139°47'0 0.0
2016-Dec-03 03:34N 35°37' E 139°47'0 0.0
2016-Dec-03 02:34N 35°37' E 139°47'0 0.0
2016-Dec-03 01:34N 35°37' E 139°47'0 0.0
2016-Dec-03 00:34N 35°37' E 139°47'0 0.0
2016-Dec-02 23:34N 35°37' E 139°47'2 2.1
2016-Dec-02 22:33N 35°35' E 139°48'1111.1
2016-Dec-02 21:33N 35°24' E 139°46'1111.4
2016-Dec-02 20:34N 35°12' E 139°47'7 7.1
2016-Dec-02 19:33N 35°05' E 139°46'5 5.4
2016-Dec-02 18:33N 35°01' E 139°42'8 7.3
2016-Dec-02 17:31N 34°54' E 139°38'  

Dump ship's entire track history